sensor_id;sensor_type;location;lat;lon;timestamp;pressure;altitude;pressure_sealevel;temperature;humidity
70458;BME280;57919;56.194;95.716;2022-12-31T00:01:33;101837.50;;;-21.63;62.49
70458;BME280;57919;56.194;95.716;2022-12-31T00:11:36;101831.69;;;-21.50;62.42
70458;BME280;57919;56.194;95.716;2022-12-31T00:21:38;101818.69;;;-21.84;62.61
70458;BME280;57919;56.194;95.716;2022-12-31T00:31:40;101846.03;;;-21.95;63.09
70458;BME280;57919;56.194;95.716;2022-12-31T00:41:42;101860.19;;;-22.40;63.03
70458;BME280;57919;56.194;95.716;2022-12-31T00:51:44;101854.53;;;-22.67;63.72
70458;BME280;57919;56.194;95.716;2022-12-31T01:01:47;101844.53;;;-22.84;64.03
70458;BME280;57919;56.194;95.716;2022-12-31T01:11:50;101857.59;;;-22.61;63.76
70458;BME280;57919;56.194;95.716;2022-12-31T01:21:52;101865.81;;;-22.54;64.40
70458;BME280;57919;56.194;95.716;2022-12-31T01:31:55;101870.91;;;-22.75;64.47
70458;BME280;57919;56.194;95.716;2022-12-31T01:41:57;101880.53;;;-22.72;64.76
70458;BME280;57919;56.194;95.716;2022-12-31T01:52:06;101862.91;;;-23.08;65.10
70458;BME280;57919;56.194;95.716;2022-12-31T02:02:11;101898.94;;;-22.97;64.83
70458;BME280;57919;56.194;95.716;2022-12-31T02:12:14;101876.75;;;-23.06;65.02
70458;BME280;57919;56.194;95.716;2022-12-31T02:43:18;101912.25;;;-23.01;64.83
70458;BME280;57919;56.194;95.716;2022-12-31T02:53:35;101872.72;;;-23.23;65.25
70458;BME280;57919;56.194;95.716;2022-12-31T03:03:40;101927.91;;;-22.87;64.58
70458;BME280;57919;56.194;95.716;2022-12-31T03:13:43;101921.41;;;-22.84;64.85
70458;BME280;57919;56.194;95.716;2022-12-31T03:23:44;101903.66;;;-23.01;64.48
70458;BME280;57919;56.194;95.716;2022-12-31T03:33:50;101925.69;;;-23.03;64.41
70458;BME280;57919;56.194;95.716;2022-12-31T03:43:52;101923.47;;;-23.09;64.87
70458;BME280;57919;56.194;95.716;2022-12-31T03:53:54;101927.25;;;-22.95;64.80
70458;BME280;57919;56.194;95.716;2022-12-31T04:03:56;101912.69;;;-22.86;64.32
70458;BME280;57919;56.194;95.716;2022-12-31T04:13:58;101907.63;;;-22.45;64.10
70458;BME280;57919;56.194;95.716;2022-12-31T04:24:00;101898.16;;;-22.16;63.95
70458;BME280;57919;56.194;95.716;2022-12-31T04:34:03;101915.72;;;-22.20;63.46
70458;BME280;57919;56.194;95.716;2022-12-31T04:44:05;101906.13;;;-22.13;63.36
70458;BME280;57919;56.194;95.716;2022-12-31T04:54:07;101883.28;;;-22.10;62.63
70458;BME280;57919;56.194;95.716;2022-12-31T05:04:08;101917.63;;;-21.98;62.88
70458;BME280;57919;56.194;95.716;2022-12-31T05:14:10;101897.47;;;-21.83;63.21
70458;BME280;57919;56.194;95.716;2022-12-31T05:24:12;101894.75;;;-21.64;63.05
70458;BME280;57919;56.194;95.716;2022-12-31T05:34:14;101890.91;;;-21.59;63.16
70458;BME280;57919;56.194;95.716;2022-12-31T05:44:16;101890.38;;;-21.55;61.97
70458;BME280;57919;56.194;95.716;2022-12-31T05:54:18;101888.59;;;-21.66;62.67
70458;BME280;57919;56.194;95.716;2022-12-31T06:04:20;101892.59;;;-21.70;61.94
70458;BME280;57919;56.194;95.716;2022-12-31T06:14:22;101885.13;;;-21.56;62.05
70458;BME280;57919;56.194;95.716;2022-12-31T06:24:24;101879.84;;;-21.48;61.96
70458;BME280;57919;56.194;95.716;2022-12-31T06:34:26;101881.25;;;-21.51;62.51
70458;BME280;57919;56.194;95.716;2022-12-31T06:44:28;101895.38;;;-21.14;62.37
70458;BME280;57919;56.194;95.716;2022-12-31T06:54:30;101898.34;;;-20.88;62.13
70458;BME280;57919;56.194;95.716;2022-12-31T07:25:26;101908.88;;;-21.17;61.42
70458;BME280;57919;56.194;95.716;2022-12-31T07:46:02;101910.09;;;-21.34;62.16
70458;BME280;57919;56.194;95.716;2022-12-31T07:56:07;101915.50;;;-21.31;61.80
70458;BME280;57919;56.194;95.716;2022-12-31T08:16:13;101894.00;;;-21.73;61.53
70458;BME280;57919;56.194;95.716;2022-12-31T08:46:41;101920.97;;;-21.68;62.77
70458;BME280;57919;56.194;95.716;2022-12-31T08:57:08;101931.56;;;-21.43;62.16
70458;BME280;57919;56.194;95.716;2022-12-31T09:07:17;101924.00;;;-21.42;61.97
70458;BME280;57919;56.194;95.716;2022-12-31T09:38:11;101941.75;;;-20.15;62.20
70458;BME280;57919;56.194;95.716;2022-12-31T09:59:04;101950.84;;;-20.42;60.60
70458;BME280;57919;56.194;95.716;2022-12-31T10:30:21;101933.66;;;-21.17;61.72
70458;BME280;57919;56.194;95.716;2022-12-31T11:01:00;101941.72;;;-21.45;58.80
70458;BME280;57919;56.194;95.716;2022-12-31T11:32:24;101923.13;;;-22.54;60.01
70458;BME280;57919;56.194;95.716;2022-12-31T11:42:49;101903.19;;;-22.77;58.84
70458;BME280;57919;56.194;95.716;2022-12-31T12:03:25;101913.44;;;-22.87;59.47
70458;BME280;57919;56.194;95.716;2022-12-31T12:13:28;101915.09;;;-22.77;58.92
70458;BME280;57919;56.194;95.716;2022-12-31T12:23:30;101878.00;;;-23.11;58.65
70458;BME280;57919;56.194;95.716;2022-12-31T12:33:44;101918.03;;;-22.93;59.07
70458;BME280;57919;56.194;95.716;2022-12-31T12:43:47;101905.31;;;-23.31;58.57
70458;BME280;57919;56.194;95.716;2022-12-31T13:45:42;101914.03;;;-23.29;58.36
70458;BME280;57919;56.194;95.716;2022-12-31T13:55:55;101907.56;;;-23.44;58.79
70458;BME280;57919;56.194;95.716;2022-12-31T14:26:54;101914.34;;;-22.86;59.50
70458;BME280;57919;56.194;95.716;2022-12-31T14:37:12;101862.25;;;-23.45;58.86
70458;BME280;57919;56.194;95.716;2022-12-31T14:57:40;101903.41;;;-23.52;60.53
70458;BME280;57919;56.194;95.716;2022-12-31T15:27:57;101900.81;;;-23.33;60.12
70458;BME280;57919;56.194;95.716;2022-12-31T15:38:16;101868.88;;;-23.57;60.49
70458;BME280;57919;56.194;95.716;2022-12-31T15:48:26;101879.41;;;-23.44;60.62
70458;BME280;57919;56.194;95.716;2022-12-31T15:58:33;101894.47;;;-23.47;59.61
70458;BME280;57919;56.194;95.716;2022-12-31T16:08:42;101889.34;;;-23.57;60.78
70458;BME280;57919;56.194;95.716;2022-12-31T16:18:45;101871.38;;;-23.67;60.65
70458;BME280;57919;56.194;95.716;2022-12-31T16:28:48;101874.34;;;-23.63;60.33
70458;BME280;57919;56.194;95.716;2022-12-31T16:38:49;101851.41;;;-23.90;60.02
70458;BME280;57919;56.194;95.716;2022-12-31T16:49:01;101881.75;;;-23.84;60.08
70458;BME280;57919;56.194;95.716;2022-12-31T16:59:44;101872.41;;;-23.84;60.47
70458;BME280;57919;56.194;95.716;2022-12-31T17:09:46;101870.47;;;-23.86;60.66
70458;BME280;57919;56.194;95.716;2022-12-31T17:19:50;101879.06;;;-23.86;60.84
70458;BME280;57919;56.194;95.716;2022-12-31T17:30:58;101877.47;;;-23.75;60.52
70458;BME280;57919;56.194;95.716;2022-12-31T17:40:43;101871.94;;;-23.80;60.24
70458;BME280;57919;56.194;95.716;2022-12-31T17:50:48;101865.91;;;-23.80;60.52
70458;BME280;57919;56.194;95.716;2022-12-31T18:00:51;101870.63;;;-23.85;60.25
70458;BME280;57919;56.194;95.716;2022-12-31T18:10:54;101856.50;;;-23.90;60.60
70458;BME280;57919;56.194;95.716;2022-12-31T18:21:01;101869.66;;;-23.96;60.44
70458;BME280;57919;56.194;95.716;2022-12-31T18:31:04;101854.78;;;-24.00;60.17
70458;BME280;57919;56.194;95.716;2022-12-31T18:41:16;101857.97;;;-24.21;60.49
70458;BME280;57919;56.194;95.716;2022-12-31T18:51:21;101846.91;;;-24.11;60.77
70458;BME280;57919;56.194;95.716;2022-12-31T19:01:30;101862.59;;;-24.17;60.06
70458;BME280;57919;56.194;95.716;2022-12-31T19:11:32;101850.34;;;-24.48;59.76
70458;BME280;57919;56.194;95.716;2022-12-31T19:21:36;101849.84;;;-24.63;59.93
70458;BME280;57919;56.194;95.716;2022-12-31T19:31:38;101850.16;;;-24.69;59.80
70458;BME280;57919;56.194;95.716;2022-12-31T19:41:43;101863.31;;;-24.83;59.35
70458;BME280;57919;56.194;95.716;2022-12-31T19:51:45;101873.53;;;-24.83;59.86
70458;BME280;57919;56.194;95.716;2022-12-31T20:01:47;101856.84;;;-25.07;59.06
70458;BME280;57919;56.194;95.716;2022-12-31T20:11:49;101875.91;;;-25.03;59.77
70458;BME280;57919;56.194;95.716;2022-12-31T20:21:51;101865.09;;;-25.09;59.60
70458;BME280;57919;56.194;95.716;2022-12-31T20:31:53;101855.03;;;-25.08;59.59
70458;BME280;57919;56.194;95.716;2022-12-31T20:41:55;101845.00;;;-25.15;59.48
70458;BME280;57919;56.194;95.716;2022-12-31T20:51:57;101823.47;;;-25.36;59.68
70458;BME280;57919;56.194;95.716;2022-12-31T21:01:59;101808.50;;;-25.50;59.09
70458;BME280;57919;56.194;95.716;2022-12-31T21:12:01;101830.97;;;-25.37;59.35
70458;BME280;57919;56.194;95.716;2022-12-31T21:22:22;101836.09;;;-25.46;59.08
70458;BME280;57919;56.194;95.716;2022-12-31T21:32:24;101823.94;;;-25.48;58.93
70458;BME280;57919;56.194;95.716;2022-12-31T21:42:26;101835.50;;;-25.52;58.81
70458;BME280;57919;56.194;95.716;2022-12-31T21:52:28;101838.22;;;-25.59;58.90
70458;BME280;57919;56.194;95.716;2022-12-31T22:02:35;101778.47;;;-25.97;58.85
70458;BME280;57919;56.194;95.716;2022-12-31T22:12:55;101779.38;;;-25.97;59.04
70458;BME280;57919;56.194;95.716;2022-12-31T22:22:57;101826.59;;;-25.92;58.35
70458;BME280;57919;56.194;95.716;2022-12-31T22:32:59;101829.31;;;-25.90;58.44
70458;BME280;57919;56.194;95.716;2022-12-31T22:43:01;101830.22;;;-26.24;58.59
70458;BME280;57919;56.194;95.716;2022-12-31T22:53:03;101781.81;;;-26.67;58.61
70458;BME280;57919;56.194;95.716;2022-12-31T23:03:05;101804.47;;;-26.44;59.10
70458;BME280;57919;56.194;95.716;2022-12-31T23:13:08;101818.81;;;-26.28;58.76
70458;BME280;57919;56.194;95.716;2022-12-31T23:23:28;101804.59;;;-26.51;58.93
70458;BME280;57919;56.194;95.716;2022-12-31T23:33:30;101823.91;;;-26.10;58.66
70458;BME280;57919;56.194;95.716;2022-12-31T23:43:32;101817.00;;;-25.94;58.64
70458;BME280;57919;56.194;95.716;2022-12-31T23:53:36;101795.75;;;-26.20;58.33
